Time;durP1;ratioP1;P1;durP2;ratioP2;P2;SDS_P1;SDS_P2;PMS_P1;PMS_P2;Temp;Humidity;BMP_temperature;BMP_pressure;BME280_temperature;BME280_humidity;BME280_pressure;Samples;Min_cycle;Max_cycle;Signal;HPM_P1;HPM_P2
2022/10/14 00:01:35;;;;;;;4.32;3.28;;;14.90;99.90;;;;;;5015749;28;20271;-74
2022/10/14 00:04:01;;;;;;;4.22;3.42;;;14.90;99.90;;;;;;5035032;28;20210;-73
2022/10/14 00:06:33;;;;;;;4.70;3.28;;;14.90;99.90;;;;;;5035008;28;20174;-76
2022/10/14 00:09:01;;;;;;;5.03;3.22;;;14.90;99.90;;;;;;5034984;28;20194;-76
2022/10/14 00:11:31;;;;;;;6.18;3.35;;;14.90;99.90;;;;;;5033589;28;20181;-76
2022/10/14 00:14:05;;;;;;;5.15;3.38;;;14.90;99.90;;;;;;5034909;28;20237;-76
2022/10/14 00:16:34;;;;;;;4.15;3.22;;;14.90;99.90;;;;;;5034774;28;20181;-75
2022/10/14 00:19:00;;;;;;;4.03;3.10;;;14.90;99.90;;;;;;5035046;28;20208;-75
2022/10/14 00:21:27;;;;;;;5.38;3.40;;;15.00;99.90;;;;;;5031040;28;20198;-76
2022/10/14 00:23:56;;;;;;;5.18;3.42;;;14.90;99.90;;;;;;5022322;28;20216;-77
2022/10/14 00:26:29;;;;;;;5.53;3.60;;;14.90;99.90;;;;;;5034877;28;20173;-77
2022/10/14 00:28:56;;;;;;;4.00;3.03;;;15.00;99.90;;;;;;5033236;28;20240;-77
2022/10/14 00:31:22;;;;;;;5.30;3.35;;;15.00;99.90;;;;;;5031227;28;20205;-77
2022/10/14 00:33:50;;;;;;;3.67;3.03;;;14.90;99.90;;;;;;5027354;28;20174;-74
2022/10/14 00:36:21;;;;;;;4.90;3.20;;;15.00;99.90;;;;;;5031002;28;20178;-77
2022/10/14 00:38:48;;;;;;;4.20;3.20;;;15.00;99.90;;;;;;5014653;28;20174;-77
2022/10/14 00:41:19;;;;;;;3.95;3.30;;;15.00;99.90;;;;;;5014923;28;20194;-77
2022/10/14 00:44:04;;;;;;;6.18;3.05;;;15.00;99.90;;;;;;5034631;28;20166;-75
2022/10/14 00:46:37;;;;;;;3.72;2.83;;;15.00;99.90;;;;;;5034616;28;20216;-75
2022/10/14 00:49:10;;;;;;;3.92;2.95;;;15.10;99.90;;;;;;5034596;28;20177;-76
2022/10/14 00:51:38;;;;;;;5.93;3.30;;;15.10;99.90;;;;;;5034481;28;20181;-75
2022/10/14 00:54:05;;;;;;;4.65;3.60;;;15.10;99.90;;;;;;5031393;28;20266;-74
2022/10/14 00:56:31;;;;;;;3.78;3.10;;;15.10;99.90;;;;;;5025439;28;20288;-76
2022/10/14 00:58:58;;;;;;;4.00;3.00;;;15.10;99.90;;;;;;5034119;28;20232;-76
2022/10/14 01:01:24;;;;;;;3.47;3.17;;;15.10;99.90;;;;;;5033234;28;20213;-76
2022/10/14 01:03:49;;;;;;;3.30;2.95;;;15.10;99.90;;;;;;5034188;28;20265;-75
2022/10/14 01:06:25;;;;;;;3.45;2.97;;;15.10;99.90;;;;;;5034311;28;20331;-75
2022/10/14 01:09:17;;;;;;;4.15;3.17;;;15.10;99.90;;;;;;5034543;28;20230;-76
2022/10/14 01:12:10;;;;;;;4.28;2.78;;;15.20;99.90;;;;;;5034530;28;20202;-76
2022/10/14 01:14:44;;;;;;;4.22;2.53;;;15.20;99.90;;;;;;5034416;28;20213;-76
2022/10/14 01:17:17;;;;;;;3.08;2.70;;;15.20;99.90;;;;;;5034545;28;20201;-76
2022/10/14 01:20:04;;;;;;;4.35;2.83;;;15.20;99.90;;;;;;5048830;28;20181;-75
2022/10/14 01:23:02;;;;;;;3.63;2.80;;;15.20;99.90;;;;;;5043609;28;20201;-76
2022/10/14 01:25:37;;;;;;;3.50;2.67;;;15.20;99.90;;;;;;5011380;28;20225;-74
2022/10/14 01:28:22;;;;;;;3.13;2.78;;;15.20;99.90;;;;;;5049971;28;20186;-76
2022/10/14 01:30:57;;;;;;;3.85;2.45;;;15.20;99.90;;;;;;5033220;28;20185;-76
2022/10/14 01:33:25;;;;;;;4.22;2.80;;;15.20;99.90;;;;;;5026647;28;20192;-76
2022/10/14 01:35:58;;;;;;;3.47;3.00;;;15.20;99.90;;;;;;5031808;28;20193;-76
2022/10/14 01:38:30;;;;;;;3.95;3.05;;;15.20;99.90;;;;;;5014475;28;20195;-76
2022/10/14 01:41:08;;;;;;;2.85;2.30;;;15.20;99.90;;;;;;5014549;28;20190;-74
2022/10/14 01:43:35;;;;;;;2.80;2.35;;;15.20;99.90;;;;;;5016216;28;20194;-76
2022/10/14 01:46:06;;;;;;;2.92;2.42;;;15.20;99.90;;;;;;5018870;28;20190;-76
2022/10/14 01:48:40;;;;;;;3.45;2.67;;;15.20;99.90;;;;;;5034378;28;20198;-75
2022/10/14 01:51:13;;;;;;;3.45;2.80;;;15.20;99.90;;;;;;5034451;28;20177;-75
2022/10/14 01:53:43;;;;;;;3.95;2.90;;;15.20;99.90;;;;;;5034132;28;20202;-76
2022/10/14 01:56:13;;;;;;;3.47;2.72;;;15.30;99.90;;;;;;5034143;28;20170;-75
2022/10/14 01:58:41;;;;;;;5.70;3.05;;;15.20;99.90;;;;;;5033977;28;20280;-76
2022/10/14 02:01:11;;;;;;;4.35;3.30;;;15.20;99.90;;;;;;5033754;28;20170;-76
2022/10/14 02:03:44;;;;;;;4.53;3.05;;;15.20;99.90;;;;;;5029228;28;20194;-76
2022/10/14 02:06:27;;;;;;;4.85;3.00;;;15.20;99.90;;;;;;5014403;28;20158;-77
2022/10/14 02:09:05;;;;;;;4.00;2.83;;;15.20;99.90;;;;;;5013749;28;20199;-77
2022/10/14 02:11:43;;;;;;;3.58;3.25;;;15.20;99.90;;;;;;5015619;28;20181;-77
2022/10/14 02:14:24;;;;;;;3.95;2.90;;;15.20;99.90;;;;;;5020931;28;20205;-75
2022/10/14 02:17:02;;;;;;;3.85;2.85;;;15.20;99.90;;;;;;5037332;28;20174;-77
2022/10/14 02:19:38;;;;;;;4.18;3.05;;;15.20;99.90;;;;;;5037106;28;20197;-75
2022/10/14 02:22:42;;;;;;;4.10;3.30;;;15.20;99.90;;;;;;5037552;28;20186;-77
2022/10/14 02:25:17;;;;;;;4.05;3.03;;;15.20;99.90;;;;;;5039531;28;20219;-76
2022/10/14 02:27:44;;;;;;;3.85;3.35;;;15.20;99.90;;;;;;5040666;28;20212;-77
2022/10/14 02:30:10;;;;;;;4.10;3.25;;;15.20;99.90;;;;;;5036700;28;20190;-77
2022/10/14 02:32:42;;;;;;;6.28;3.67;;;15.20;99.90;;;;;;5037017;28;20205;-76
2022/10/14 02:35:11;;;;;;;2.75;2.53;;;15.20;99.90;;;;;;5036895;28;20198;-76
2022/10/14 02:37:40;;;;;;;5.18;2.95;;;15.20;99.90;;;;;;5020797;28;20240;-77
2022/10/14 02:40:29;;;;;;;3.28;2.65;;;15.20;99.90;;;;;;5017145;28;20206;-76
2022/10/14 02:42:55;;;;;;;3.45;2.95;;;15.30;99.90;;;;;;5027345;28;20181;-77
2022/10/14 02:45:27;;;;;;;4.60;3.15;;;15.30;99.90;;;;;;5036638;28;20210;-77
2022/10/14 02:47:53;;;;;;;3.60;2.60;;;15.30;99.90;;;;;;5037007;28;20158;-76
2022/10/14 02:50:20;;;;;;;3.53;2.47;;;15.30;99.90;;;;;;5036720;28;20193;-77
2022/10/14 02:52:53;;;;;;;2.97;2.65;;;15.30;99.90;;;;;;5036818;28;20181;-75
2022/10/14 02:55:18;;;;;;;3.15;2.42;;;15.30;99.90;;;;;;5036465;28;20198;-76
2022/10/14 02:57:44;;;;;;;3.10;2.60;;;15.30;99.90;;;;;;5036865;28;20201;-77
2022/10/14 03:00:14;;;;;;;3.17;2.50;;;15.20;99.90;;;;;;5030233;28;20541;-76
2022/10/14 03:02:40;;;;;;;3.30;2.22;;;15.30;99.90;;;;;;5019736;28;20252;-77
2022/10/14 03:05:08;;;;;;;2.45;2.20;;;15.30;99.90;;;;;;5036849;28;20316;-75
2022/10/14 03:07:34;;;;;;;2.70;2.10;;;15.30;99.90;;;;;;5035930;28;20453;-74
2022/10/14 03:10:02;;;;;;;3.30;2.17;;;15.30;99.90;;;;;;5030203;28;20181;-73
2022/10/14 03:12:29;;;;;;;2.30;2.08;;;15.30;99.90;;;;;;5016278;28;20171;-73
2022/10/14 03:14:57;;;;;;;2.42;2.22;;;15.30;99.90;;;;;;5031175;28;20503;-75
2022/10/14 03:17:23;;;;;;;3.53;2.47;;;15.30;99.90;;;;;;5035735;28;20206;-75
2022/10/14 03:19:49;;;;;;;3.33;2.08;;;15.30;99.90;;;;;;5036228;28;20174;-75
2022/10/14 03:22:14;;;;;;;3.20;2.08;;;15.30;99.90;;;;;;5036191;28;20197;-76
2022/10/14 03:24:40;;;;;;;4.15;2.60;;;15.30;99.90;;;;;;5034820;28;20194;-75
2022/10/14 03:27:08;;;;;;;2.95;2.05;;;15.30;99.90;;;;;;5035674;28;20276;-75
2022/10/14 03:29:33;;;;;;;3.85;2.50;;;15.30;99.90;;;;;;5036061;28;20182;-75
2022/10/14 03:31:59;;;;;;;2.60;2.20;;;15.30;99.90;;;;;;5035710;28;20285;-75
2022/10/14 03:34:24;;;;;;;3.08;2.22;;;15.30;99.90;;;;;;5035837;28;20173;-75
2022/10/14 03:36:55;;;;;;;2.58;2.10;;;15.30;99.90;;;;;;5035706;28;20188;-75
2022/10/14 03:39:20;;;;;;;2.90;2.10;;;15.30;99.90;;;;;;5035061;28;20459;-74
2022/10/14 03:41:46;;;;;;;3.30;2.22;;;15.30;99.90;;;;;;5035773;28;20182;-74
2022/10/14 03:44:12;;;;;;;3.60;2.30;;;15.40;99.90;;;;;;5036025;28;20220;-75
2022/10/14 03:46:39;;;;;;;4.03;2.65;;;15.30;99.90;;;;;;5035643;28;20174;-74
2022/10/14 03:49:07;;;;;;;3.60;2.38;;;15.30;99.90;;;;;;5035740;28;20205;-75
2022/10/14 03:51:33;;;;;;;3.53;2.30;;;15.30;99.90;;;;;;5035587;28;20190;-75
2022/10/14 03:54:01;;;;;;;3.35;2.38;;;15.40;99.90;;;;;;5018917;28;20221;-72
2022/10/14 03:56:26;;;;;;;4.10;2.55;;;15.30;99.90;;;;;;5025832;28;20198;-75
2022/10/14 03:58:52;;;;;;;3.58;2.70;;;15.40;99.90;;;;;;5035280;28;20293;-75
2022/10/14 04:01:18;;;;;;;3.30;2.70;;;15.40;99.90;;;;;;5035000;28;20216;-75
2022/10/14 04:03:45;;;;;;;3.85;3.13;;;15.40;99.90;;;;;;5035005;28;20251;-75
2022/10/14 04:06:13;;;;;;;3.58;2.85;;;15.40;99.90;;;;;;5036018;28;20224;-75
2022/10/14 04:08:44;;;;;;;4.47;3.10;;;15.40;99.90;;;;;;5034802;28;20198;-75
2022/10/14 04:11:10;;;;;;;4.50;3.05;;;15.40;99.90;;;;;;5034408;28;20181;-74
2022/10/14 04:13:37;;;;;;;5.65;3.00;;;15.40;99.90;;;;;;5034715;28;20194;-74
2022/10/14 04:16:05;;;;;;;4.07;2.95;;;15.40;99.90;;;;;;5034893;28;20170;-73
2022/10/14 04:18:30;;;;;;;3.90;2.97;;;15.40;99.90;;;;;;5034492;28;20201;-74
2022/10/14 04:21:00;;;;;;;4.28;2.95;;;15.40;99.90;;;;;;5035357;28;20189;-74
2022/10/14 04:23:26;;;;;;;5.25;3.42;;;15.40;99.90;;;;;;5034245;28;20201;-67
2022/10/14 04:25:53;;;;;;;3.08;2.53;;;15.40;99.90;;;;;;5034811;28;20197;-75
2022/10/14 04:28:22;;;;;;;4.07;2.78;;;15.40;99.90;;;;;;5035749;28;20174;-75
2022/10/14 04:30:47;;;;;;;3.72;2.70;;;15.40;99.90;;;;;;5033385;28;20389;-74
2022/10/14 04:33:15;;;;;;;3.50;2.40;;;15.40;99.90;;;;;;5032306;28;20178;-75
2022/10/14 04:35:47;;;;;;;2.95;2.65;;;15.40;99.90;;;;;;5035256;28;20181;-73
2022/10/14 04:38:15;;;;;;;3.88;2.38;;;15.40;99.90;;;;;;5034421;28;20178;-74
2022/10/14 04:40:44;;;;;;;4.30;2.80;;;15.40;99.90;;;;;;5034882;28;20182;-74
2022/10/14 04:43:16;;;;;;;3.88;2.72;;;15.40;99.90;;;;;;5034714;28;20170;-75
2022/10/14 04:45:44;;;;;;;4.10;2.90;;;15.50;99.90;;;;;;5034346;28;20293;-74
2022/10/14 04:48:17;;;;;;;4.57;2.95;;;15.40;99.90;;;;;;5033919;28;20170;-75
2022/10/14 04:50:43;;;;;;;4.88;2.90;;;15.40;99.90;;;;;;5032082;28;20245;-74
2022/10/14 04:53:11;;;;;;;3.13;2.78;;;15.50;99.90;;;;;;5034101;28;20175;-74
2022/10/14 04:55:39;;;;;;;4.53;2.53;;;15.40;99.90;;;;;;5014702;28;20206;-74
2022/10/14 04:58:05;;;;;;;4.10;2.80;;;15.40;99.90;;;;;;5023440;28;20181;-74
2022/10/14 05:00:31;;;;;;;3.80;2.53;;;15.40;99.90;;;;;;5033674;28;20202;-74
2022/10/14 05:02:59;;;;;;;3.13;2.30;;;15.40;99.90;;;;;;5034445;28;20201;-74
2022/10/14 05:05:24;;;;;;;3.42;2.45;;;15.40;99.90;;;;;;5034722;28;20217;-74
2022/10/14 05:07:50;;;;;;;3.17;2.33;;;15.40;99.90;;;;;;5034160;28;20166;-75
2022/10/14 05:10:16;;;;;;;3.72;2.47;;;15.40;99.90;;;;;;5034132;28;20169;-74
2022/10/14 05:12:41;;;;;;;2.63;2.42;;;15.40;99.90;;;;;;5034492;28;20178;-75
2022/10/14 05:15:08;;;;;;;3.92;2.55;;;15.40;99.90;;;;;;5035156;28;20162;-74
2022/10/14 05:17:36;;;;;;;4.57;2.53;;;15.40;99.90;;;;;;5034517;28;20185;-76
2022/10/14 05:20:02;;;;;;;2.50;2.30;;;15.40;99.90;;;;;;5034472;28;20252;-75
2022/10/14 05:22:30;;;;;;;3.58;2.30;;;15.40;99.90;;;;;;5033532;28;20238;-74
2022/10/14 05:25:00;;;;;;;3.08;2.38;;;15.30;99.90;;;;;;5033473;28;20296;-74
2022/10/14 05:27:26;;;;;;;3.10;2.00;;;15.30;99.90;;;;;;5016926;28;20278;-74
2022/10/14 05:29:52;;;;;;;2.47;2.05;;;15.30;99.90;;;;;;5031393;28;20225;-72
2022/10/14 05:32:17;;;;;;;2.38;2.10;;;15.30;99.90;;;;;;5034243;28;20243;-72
2022/10/14 05:34:43;;;;;;;2.47;2.15;;;15.30;99.90;;;;;;5034508;28;20224;-73
2022/10/14 05:37:11;;;;;;;2.63;2.30;;;15.20;99.90;;;;;;5032269;28;20232;-72
2022/10/14 05:39:37;;;;;;;2.88;2.40;;;15.20;99.90;;;;;;5034166;28;20243;-73
2022/10/14 05:42:02;;;;;;;3.10;2.30;;;15.20;99.90;;;;;;5034168;28;20178;-73
2022/10/14 05:44:30;;;;;;;3.33;2.67;;;15.20;99.90;;;;;;5034544;28;20198;-72
2022/10/14 05:47:01;;;;;;;3.25;2.33;;;15.20;99.90;;;;;;5033661;28;20174;-72
2022/10/14 05:49:27;;;;;;;3.78;2.42;;;15.20;99.90;;;;;;5038487;28;20198;-73
2022/10/14 05:51:55;;;;;;;3.92;2.67;;;15.20;99.90;;;;;;5022925;28;20174;-73
2022/10/14 05:54:23;;;;;;;2.70;2.13;;;15.20;99.90;;;;;;5018174;28;20238;-73
2022/10/14 05:56:51;;;;;;;3.30;2.28;;;15.20;99.90;;;;;;5018516;28;20262;-73
2022/10/14 05:59:19;;;;;;;3.65;2.30;;;15.20;99.90;;;;;;5018495;28;20210;-72
2022/10/14 06:01:57;;;;;;;3.00;2.13;;;15.20;99.90;;;;;;5018496;28;20213;-73
2022/10/14 06:04:24;;;;;;;3.35;2.78;;;15.20;99.90;;;;;;5020683;28;20202;-72
2022/10/14 06:06:50;;;;;;;3.53;2.50;;;15.20;99.90;;;;;;5038915;28;20170;-72
2022/10/14 06:09:18;;;;;;;2.78;2.30;;;15.20;99.90;;;;;;5038003;28;20170;-73
2022/10/14 06:11:47;;;;;;;4.00;2.30;;;15.20;99.90;;;;;;5037962;28;20196;-73
2022/10/14 06:14:12;;;;;;;4.28;2.50;;;15.20;99.90;;;;;;5038040;28;20204;-72
2022/10/14 06:16:40;;;;;;;4.13;2.47;;;15.20;99.90;;;;;;5048877;28;20183;-72
2022/10/14 06:19:06;;;;;;;2.40;2.20;;;15.20;99.90;;;;;;5020270;28;20185;-72
2022/10/14 06:21:34;;;;;;;4.50;2.55;;;15.20;99.90;;;;;;5018796;28;20175;-73
2022/10/14 06:24:00;;;;;;;3.08;2.38;;;15.20;99.90;;;;;;5017880;28;20203;-73
2022/10/14 06:26:30;;;;;;;2.78;2.58;;;15.20;99.90;;;;;;5018167;28;20177;-72
2022/10/14 06:28:56;;;;;;;3.17;2.50;;;15.20;99.90;;;;;;5017535;28;20167;-73
2022/10/14 06:31:22;;;;;;;3.33;2.50;;;15.30;99.90;;;;;;5035016;28;20180;-73
2022/10/14 06:33:48;;;;;;;4.45;2.72;;;15.30;99.90;;;;;;5036362;28;20182;-73
2022/10/14 06:36:16;;;;;;;3.63;2.60;;;15.30;99.90;;;;;;5029192;28;20229;-73
2022/10/14 06:38:42;;;;;;;5.38;2.88;;;15.30;99.90;;;;;;5037985;28;20173;-72
2022/10/14 06:41:13;;;;;;;3.50;2.88;;;15.30;99.90;;;;;;5029430;28;20190;-73
2022/10/14 06:43:39;;;;;;;3.40;2.80;;;15.30;99.90;;;;;;5018138;28;20171;-72
2022/10/14 06:46:14;;;;;;;4.20;2.55;;;15.30;99.90;;;;;;5019910;28;20206;-72
2022/10/14 06:48:43;;;;;;;5.38;3.60;;;15.40;99.90;;;;;;5018469;28;20194;-72
2022/10/14 06:51:09;;;;;;;4.28;2.60;;;15.40;99.90;;;;;;5035508;28;20320;-72
2022/10/14 06:53:34;;;;;;;3.92;3.10;;;15.40;99.90;;;;;;5037053;28;20488;-72
2022/10/14 06:56:04;;;;;;;4.47;3.00;;;15.40;99.90;;;;;;5036835;28;20188;-71
2022/10/14 06:58:30;;;;;;;4.10;2.90;;;15.40;99.90;;;;;;5037904;28;20197;-72
2022/10/14 07:01:01;;;;;;;4.70;3.20;;;15.40;99.90;;;;;;5022341;28;20197;-73
2022/10/14 07:03:29;;;;;;;6.68;3.30;;;15.40;99.90;;;;;;5037482;28;20228;-70
2022/10/14 07:05:55;;;;;;;4.30;3.60;;;15.40;99.90;;;;;;5039383;28;20255;-72
2022/10/14 07:08:20;;;;;;;4.20;2.85;;;15.40;99.90;;;;;;5032099;28;20213;-74
2022/10/14 07:10:46;;;;;;;4.47;3.00;;;15.40;99.90;;;;;;5040884;28;20278;-72
2022/10/14 07:13:12;;;;;;;4.43;3.50;;;15.40;99.90;;;;;;5030554;28;20252;-72
2022/10/14 07:15:38;;;;;;;5.53;3.38;;;15.40;99.90;;;;;;5016967;28;20187;-72
2022/10/14 07:18:09;;;;;;;4.00;3.00;;;15.50;99.90;;;;;;5033339;28;20209;-73
2022/10/14 07:20:34;;;;;;;5.82;3.40;;;15.50;99.90;;;;;;5016535;28;20183;-74
2022/10/14 07:23:00;;;;;;;4.78;3.50;;;15.50;99.90;;;;;;5034375;28;20178;-73
2022/10/14 07:25:31;;;;;;;4.15;3.40;;;15.50;99.90;;;;;;5037683;28;20272;-72
2022/10/14 07:27:57;;;;;;;4.57;3.30;;;15.50;99.90;;;;;;5044783;28;20166;-73
2022/10/14 07:30:23;;;;;;;5.63;3.83;;;15.60;99.90;;;;;;5036867;28;20233;-72
2022/10/14 07:32:49;;;;;;;4.32;3.30;;;15.60;99.90;;;;;;5035403;28;20205;-74
2022/10/14 07:35:17;;;;;;;6.70;3.60;;;15.60;99.90;;;;;;5035958;28;20181;-72
2022/10/14 07:37:43;;;;;;;4.65;3.17;;;15.60;99.90;;;;;;5017521;28;20260;-72
2022/10/14 07:40:14;;;;;;;4.53;3.22;;;15.60;99.90;;;;;;5016694;28;20179;-72
2022/10/14 07:42:49;;;;;;;5.00;3.10;;;15.60;99.90;;;;;;5036233;28;20363;-72
2022/10/14 07:45:34;;;;;;;3.50;3.10;;;15.70;99.90;;;;;;5024735;28;20198;-73
2022/10/14 07:47:59;;;;;;;4.50;3.10;;;15.80;99.90;;;;;;5016352;28;20178;-72
2022/10/14 07:50:25;;;;;;;4.65;3.35;;;15.70;99.90;;;;;;5015817;28;20175;-72
2022/10/14 07:52:51;;;;;;;4.50;3.10;;;15.80;99.90;;;;;;5025044;28;20170;-73
2022/10/14 07:55:19;;;;;;;3.88;3.42;;;15.80;99.90;;;;;;5036305;28;20232;-71
2022/10/14 07:57:45;;;;;;;4.32;3.60;;;15.80;99.90;;;;;;5035670;28;20189;-73
2022/10/14 08:00:14;;;;;;;4.65;3.50;;;15.90;99.90;;;;;;5035039;28;20192;-73
2022/10/14 08:02:45;;;;;;;5.65;3.13;;;15.90;99.90;;;;;;5020266;28;20256;-72
2022/10/14 08:05:13;;;;;;;4.22;3.55;;;15.90;99.90;;;;;;5016413;28;20230;-72
2022/10/14 08:07:41;;;;;;;3.92;3.45;;;16.00;99.90;;;;;;5036194;28;20260;-74
2022/10/14 08:10:11;;;;;;;3.65;2.92;;;16.00;99.90;;;;;;5035935;28;20257;-73
2022/10/14 08:12:37;;;;;;;5.88;3.00;;;16.00;99.90;;;;;;5035013;28;20210;-73
2022/10/14 08:15:06;;;;;;;3.28;2.90;;;16.10;99.90;;;;;;5035492;28;20178;-73
2022/10/14 08:17:35;;;;;;;3.85;2.80;;;16.10;99.90;;;;;;5035456;28;20174;-73
2022/10/14 08:20:01;;;;;;;4.60;3.17;;;16.20;99.90;;;;;;5036513;28;20198;-73
2022/10/14 08:22:26;;;;;;;3.72;2.72;;;16.20;99.90;;;;;;5025621;28;20195;-73
2022/10/14 08:24:54;;;;;;;3.20;2.80;;;16.20;99.90;;;;;;5018582;28;20273;-73
2022/10/14 08:27:20;;;;;;;3.80;2.88;;;16.30;99.90;;;;;;5019873;28;20232;-72
2022/10/14 08:29:47;;;;;;;4.50;2.78;;;16.30;99.90;;;;;;5026528;28;20170;-75
2022/10/14 08:32:15;;;;;;;4.55;3.17;;;16.40;99.90;;;;;;5037790;28;20267;-73
2022/10/14 08:34:43;;;;;;;3.38;2.67;;;16.40;99.90;;;;;;5036195;28;20184;-75
2022/10/14 08:37:10;;;;;;;3.40;2.70;;;16.40;99.90;;;;;;5037818;28;20182;-73
2022/10/14 08:39:36;;;;;;;4.45;2.80;;;16.50;99.90;;;;;;5035176;28;20212;-73
2022/10/14 08:42:22;;;;;;;5.68;3.33;;;16.50;99.90;;;;;;5035652;28;20265;-73
2022/10/14 08:45:18;;;;;;;3.42;2.97;;;16.50;99.90;;;;;;5034350;28;20216;-73
2022/10/14 08:47:52;;;;;;;3.63;2.80;;;16.60;99.90;;;;;;5036590;28;20169;-73
2022/10/14 08:50:35;;;;;;;4.95;2.85;;;16.60;99.90;;;;;;5036978;28;20208;-74
2022/10/14 08:53:26;;;;;;;4.00;2.90;;;16.70;99.90;;;;;;5035418;28;20170;-74
2022/10/14 08:55:56;;;;;;;5.35;3.50;;;16.70;99.90;;;;;;5031712;28;20265;-73
2022/10/14 08:58:33;;;;;;;5.90;3.67;;;16.80;99.90;;;;;;5033699;28;20404;-74
2022/10/14 09:01:09;;;;;;;6.00;4.00;;;16.80;99.90;;;;;;5015221;28;20181;-74
2022/10/14 09:03:37;;;;;;;5.22;3.05;;;16.90;99.90;;;;;;5016423;28;20194;-73
2022/10/14 09:06:16;;;;;;;3.97;3.08;;;17.00;99.90;;;;;;5015784;28;20198;-74
2022/10/14 09:08:45;;;;;;;5.43;3.40;;;17.00;99.90;;;;;;5023538;28;20186;-73
2022/10/14 09:11:22;;;;;;;4.80;3.25;;;17.00;99.90;;;;;;5035926;28;20181;-74
2022/10/14 09:14:01;;;;;;;4.10;3.50;;;17.00;99.90;;;;;;5041010;28;20224;-72
2022/10/14 09:16:36;;;;;;;4.70;3.83;;;17.10;99.90;;;;;;5033988;28;20242;-69
2022/10/14 09:19:30;;;;;;;4.60;3.70;;;17.10;99.90;;;;;;5034735;28;20154;-74
2022/10/14 09:22:00;;;;;;;4.57;3.22;;;17.20;99.90;;;;;;5016937;28;20190;-73
2022/10/14 09:24:38;;;;;;;4.82;3.67;;;17.20;99.90;;;;;;5020292;28;20194;-72
2022/10/14 09:27:06;;;;;;;5.10;4.15;;;17.20;99.90;;;;;;5023391;28;20209;-72
2022/10/14 09:29:44;;;;;;;4.40;3.55;;;17.20;99.90;;;;;;5019541;28;20198;-72
2022/10/14 09:32:34;;;;;;;6.18;4.20;;;17.30;99.90;;;;;;5021019;28;20213;-73
2022/10/14 09:35:01;;;;;;;5.07;3.85;;;17.30;99.90;;;;;;5027599;28;20259;-72
2022/10/14 09:37:36;;;;;;;5.22;3.90;;;17.30;99.90;;;;;;5039797;28;20192;-74
2022/10/14 09:40:05;;;;;;;4.75;3.65;;;17.30;99.90;;;;;;5040732;28;20202;-74
2022/10/14 09:42:54;;;;;;;4.60;3.53;;;17.30;99.90;;;;;;5033773;28;20198;-72
2022/10/14 09:45:24;;;;;;;6.20;4.20;;;17.30;99.90;;;;;;5027515;28;20280;-73
2022/10/14 09:48:02;;;;;;;6.03;4.50;;;17.40;99.90;;;;;;5033494;28;20174;-73
2022/10/14 09:50:37;;;;;;;4.72;3.97;;;17.40;99.90;;;;;;5019637;28;20167;-73
2022/10/14 09:53:07;;;;;;;6.95;4.43;;;17.40;99.90;;;;;;5036546;28;20173;-73
2022/10/14 09:55:38;;;;;;;5.45;4.28;;;17.40;99.90;;;;;;5034533;28;20233;-72
2022/10/14 09:58:14;;;;;;;6.47;4.40;;;17.50;99.90;;;;;;5019368;28;20229;-72
2022/10/14 10:00:40;;;;;;;6.18;4.55;;;17.50;99.90;;;;;;5018968;28;20196;-72
2022/10/14 10:03:06;;;;;;;6.63;4.05;;;17.50;99.90;;;;;;5029636;28;20228;-72
2022/10/14 10:05:34;;;;;;;5.57;4.03;;;17.50;99.90;;;;;;5039456;28;20198;-73
2022/10/14 10:08:12;;;;;;;5.15;4.60;;;17.60;99.90;;;;;;5042913;28;20476;-73
2022/10/14 10:10:38;;;;;;;5.63;4.53;;;17.70;99.90;;;;;;5021682;28;20307;-73
2022/10/14 10:13:21;;;;;;;7.88;5.03;;;17.70;99.90;;;;;;5021403;28;20205;-73
2022/10/14 10:16:01;;;;;;;5.72;4.13;;;17.70;99.90;;;;;;5037859;28;20499;-74
2022/10/14 10:18:27;;;;;;;5.00;4.05;;;17.80;99.90;;;;;;5024038;28;20178;-73
2022/10/14 10:21:23;;;;;;;4.80;4.05;;;17.80;99.90;;;;;;5016465;28;20217;-72
2022/10/14 10:23:50;;;;;;;5.78;4.47;;;17.80;99.90;;;;;;5005056;28;20187;-73
2022/10/14 10:26:24;;;;;;;7.45;4.40;;;17.80;99.90;;;;;;5017196;28;20258;-73
2022/10/14 10:28:57;;;;;;;5.05;4.05;;;17.80;99.90;;;;;;5031178;28;20276;-73
2022/10/14 10:31:52;;;;;;;5.55;4.20;;;17.80;99.90;;;;;;5038420;28;20170;-70
2022/10/14 10:34:59;;;;;;;4.82;4.13;;;17.80;99.90;;;;;;5038660;28;20251;-72
2022/10/14 10:37:30;;;;;;;6.05;4.43;;;17.80;99.90;;;;;;5018146;28;20192;-74
2022/10/14 10:40:37;;;;;;;5.07;3.83;;;17.70;99.90;;;;;;5026462;28;20182;-73
2022/10/14 10:43:30;;;;;;;5.07;4.25;;;17.70;99.90;;;;;;4976537;28;20254;-75
2022/10/14 10:46:14;;;;;;;5.55;4.10;;;17.60;99.90;;;;;;4997385;28;20236;-75
2022/10/14 10:49:05;;;;;;;5.03;4.15;;;17.60;99.90;;;;;;5027766;28;20210;-74
2022/10/14 10:51:50;;;;;;;6.22;4.50;;;17.60;99.90;;;;;;5026039;28;20283;-75
2022/10/14 10:54:34;;;;;;;4.88;4.38;;;17.50;99.90;;;;;;5031391;28;20211;-74
2022/10/14 10:57:17;;;;;;;6.45;4.25;;;17.40;99.90;;;;;;5017756;28;20154;-74
2022/10/14 10:59:44;;;;;;;5.55;4.35;;;17.40;99.90;;;;;;5025280;28;20209;-73
2022/10/14 11:02:44;;;;;;;5.35;4.22;;;17.40;99.90;;;;;;4484771;28;16061730;-74
2022/10/14 11:05:31;;;;;;;6.57;4.60;;;17.40;99.90;;;;;;5039676;28;20217;-75
2022/10/14 11:14:17;;;;;;;6.00;4.07;;;17.40;99.90;;;;;;5037449;28;20240;-74
2022/10/14 11:17:21;;;;;;;5.78;4.80;;;17.40;99.90;;;;;;5037722;28;20239;-74
2022/10/14 11:20:05;;;;;;;6.10;4.40;;;17.40;99.90;;;;;;5023150;28;20171;-73
2022/10/14 11:22:56;;;;;;;5.65;4.82;;;17.50;99.90;;;;;;5039727;28;20201;-74
2022/10/14 11:25:48;;;;;;;5.32;4.15;;;17.40;99.90;;;;;;5022289;28;20481;-74
2022/10/14 11:28:37;;;;;;;6.32;4.90;;;17.50;99.90;;;;;;5018210;28;20607;-73
2022/10/14 11:31:45;;;;;;;5.28;4.50;;;17.50;99.90;;;;;;5019370;28;20205;-75
2022/10/14 11:34:32;;;;;;;6.00;4.38;;;17.50;99.90;;;;;;5016591;28;20180;-75
2022/10/14 11:37:09;;;;;;;4.03;3.63;;;17.50;99.90;;;;;;5028194;28;20265;-75
2022/10/14 11:39:45;;;;;;;5.63;4.05;;;17.50;99.90;;;;;;5029555;28;20191;-74
2022/10/14 11:42:20;;;;;;;6.07;4.28;;;17.50;99.90;;;;;;5016253;28;20390;-74
2022/10/14 11:44:57;;;;;;;7.85;4.47;;;17.50;99.90;;;;;;5032548;28;20296;-75
2022/10/14 11:47:32;;;;;;;5.53;4.35;;;17.50;99.90;;;;;;5026357;28;20170;-74
2022/10/14 11:50:21;;;;;;;5.57;4.40;;;17.40;99.90;;;;;;5036639;28;20259;-75
2022/10/14 11:53:00;;;;;;;6.22;4.50;;;17.40;99.90;;;;;;5036688;28;20189;-74
2022/10/14 11:55:31;;;;;;;5.70;4.25;;;17.50;99.90;;;;;;5035974;28;20208;-75
2022/10/14 11:58:17;;;;;;;4.75;3.85;;;17.40;99.90;;;;;;5036550;28;20200;-74
2022/10/14 12:01:02;;;;;;;5.22;4.03;;;17.50;99.90;;;;;;5031523;28;20166;-73
2022/10/14 12:03:52;;;;;;;4.47;3.78;;;17.50;99.90;;;;;;5016546;28;20187;-74
2022/10/14 12:06:25;;;;;;;4.47;3.75;;;17.50;99.90;;;;;;5035355;28;20392;-73
2022/10/14 12:09:04;;;;;;;5.03;4.07;;;17.50;99.90;;;;;;5035956;28;20237;-73
2022/10/14 12:11:43;;;;;;;5.57;4.50;;;17.50;99.90;;;;;;5037526;28;20193;-74
2022/10/14 12:14:21;;;;;;;5.45;4.72;;;17.50;99.90;;;;;;5039901;28;20189;-74
2022/10/14 12:16:49;;;;;;;6.50;4.45;;;17.50;99.90;;;;;;5021321;28;20178;-73
2022/10/14 12:19:24;;;;;;;5.55;4.25;;;17.50;99.90;;;;;;5024152;28;20170;-73
2022/10/14 12:21:57;;;;;;;4.72;3.95;;;17.50;99.90;;;;;;5036324;28;20169;-73
2022/10/14 12:24:33;;;;;;;5.25;3.97;;;17.60;99.90;;;;;;5030115;28;20313;-74
2022/10/14 12:27:08;;;;;;;4.40;3.85;;;17.50;99.90;;;;;;5031323;28;20279;-73
2022/10/14 12:29:57;;;;;;;6.55;3.70;;;17.50;99.90;;;;;;5029859;28;20300;-73
2022/10/14 12:32:29;;;;;;;4.15;3.65;;;17.50;99.90;;;;;;5036107;28;20186;-74
2022/10/14 12:35:43;;;;;;;3.92;3.35;;;17.50;99.90;;;;;;5042134;28;20182;-72
2022/10/14 12:38:13;;;;;;;4.10;3.33;;;17.50;99.90;;;;;;5037075;28;20209;-73
2022/10/14 12:40:42;;;;;;;4.70;4.18;;;17.40;99.90;;;;;;5034875;28;20192;-74
2022/10/14 12:43:28;;;;;;;5.38;3.83;;;17.40;99.90;;;;;;5033356;28;20197;-73
2022/10/14 12:46:11;;;;;;;5.97;3.53;;;17.40;99.90;;;;;;5017430;28;20211;-73
2022/10/14 12:48:46;;;;;;;4.10;3.70;;;17.40;99.90;;;;;;5015882;28;20182;-74
2022/10/14 12:51:20;;;;;;;4.25;3.67;;;17.40;99.90;;;;;;5028747;28;20201;-73
2022/10/14 12:54:09;;;;;;;7.03;3.58;;;17.40;99.90;;;;;;5011196;28;20265;-73
2022/10/14 12:56:54;;;;;;;3.88;3.13;;;17.30;99.90;;;;;;5005645;28;20191;-74
2022/10/14 12:59:32;;;;;;;4.43;3.67;;;17.30;99.90;;;;;;5018508;28;20170;-74
2022/10/14 13:02:03;;;;;;;3.92;3.40;;;17.30;99.90;;;;;;5035186;28;20201;-74
2022/10/14 13:04:32;;;;;;;5.50;3.65;;;17.30;99.90;;;;;;5036544;28;20213;-74
2022/10/14 13:07:12;;;;;;;5.43;3.60;;;17.40;99.90;;;;;;5033505;28;20201;-74
2022/10/14 13:10:04;;;;;;;4.60;4.00;;;17.30;99.90;;;;;;5029247;28;20201;-73
2022/10/14 13:12:36;;;;;;;3.75;3.28;;;17.40;99.90;;;;;;5036583;28;20189;-74
2022/10/14 13:15:24;;;;;;;4.68;3.40;;;17.40;99.90;;;;;;5036156;28;20225;-74
2022/10/14 13:17:55;;;;;;;3.85;3.40;;;17.40;99.90;;;;;;5031624;28;20205;-74
2022/10/14 13:20:33;;;;;;;3.80;3.08;;;17.40;99.90;;;;;;5028987;28;20202;-74